createdAt,value
2018-12-27T00:01:06.425Z,3.57
2018-12-27T00:03:35.409Z,3.23
2018-12-27T00:06:04.399Z,3.80
2018-12-27T00:08:33.460Z,3.50
2018-12-27T00:11:02.449Z,3.43
2018-12-27T00:13:31.449Z,3.93
2018-12-27T00:16:00.405Z,3.70
2018-12-27T00:18:29.520Z,3.47
2018-12-27T00:20:58.499Z,3.57
2018-12-27T00:23:27.453Z,3.27
2018-12-27T00:25:56.434Z,3.33
2018-12-27T00:28:25.415Z,3.97
2018-12-27T00:30:54.738Z,3.33
2018-12-27T00:33:24.048Z,3.47
2018-12-27T00:35:53.377Z,3.77
2018-12-27T00:38:22.669Z,3.53
2018-12-27T00:40:51.995Z,3.50
2018-12-27T00:43:21.313Z,3.70
2018-12-27T00:45:50.843Z,3.47
2018-12-27T00:48:20.209Z,3.47
2018-12-27T00:50:49.544Z,3.50
2018-12-27T00:53:18.947Z,3.50
2018-12-27T00:55:48.241Z,3.90
2018-12-27T00:58:17.560Z,3.60
2018-12-27T01:00:46.872Z,3.87
2018-12-27T01:03:16.192Z,3.40
2018-12-27T01:05:45.498Z,3.73
2018-12-27T01:08:14.832Z,3.90
2018-12-27T01:10:44.149Z,3.13
2018-12-27T01:13:13.481Z,3.50
2018-12-27T01:15:42.802Z,3.63
2018-12-27T01:18:12.143Z,3.53
2018-12-27T01:20:41.470Z,3.80
2018-12-27T01:23:10.781Z,3.33
2018-12-27T01:25:40.107Z,3.83
2018-12-27T01:28:09.422Z,3.80
2018-12-27T01:30:38.722Z,3.60
2018-12-27T01:33:08.017Z,3.53
2018-12-27T01:35:37.413Z,3.97
2018-12-27T01:38:06.786Z,3.60
2018-12-27T01:40:36.101Z,3.40
2018-12-27T01:43:05.418Z,3.63
2018-12-27T01:45:34.812Z,3.80
2018-12-27T01:48:04.115Z,3.87
2018-12-27T01:50:33.439Z,3.97
2018-12-27T01:53:02.746Z,3.53
2018-12-27T01:55:32.051Z,3.63
2018-12-27T01:58:01.377Z,3.83
2018-12-27T02:00:30.696Z,3.70
2018-12-27T02:03:00.026Z,4.03
2018-12-27T02:05:29.329Z,3.47
2018-12-27T02:07:58.560Z,3.30
2018-12-27T02:10:27.876Z,3.67
2018-12-27T02:12:57.199Z,3.87
2018-12-27T02:15:26.524Z,3.53
2018-12-27T02:17:55.821Z,3.77
2018-12-27T02:20:25.138Z,3.83
2018-12-27T02:22:54.444Z,3.73
2018-12-27T02:25:23.758Z,3.90
2018-12-27T02:27:53.088Z,3.40
2018-12-27T02:30:22.397Z,3.20
2018-12-27T02:32:51.696Z,3.70
2018-12-27T02:35:20.995Z,3.70
2018-12-27T02:37:50.286Z,3.97
2018-12-27T02:40:19.611Z,3.73
2018-12-27T02:42:48.944Z,3.87
2018-12-27T02:45:18.276Z,3.87
2018-12-27T02:47:47.592Z,3.13
2018-12-27T02:50:16.901Z,3.10
2018-12-27T02:52:46.218Z,4.00
2018-12-27T02:55:15.529Z,3.40
2018-12-27T02:57:44.851Z,3.70
2018-12-27T03:00:14.180Z,3.43
2018-12-27T03:02:43.572Z,3.80
2018-12-27T03:05:12.873Z,3.80
2018-12-27T03:07:42.148Z,3.53
2018-12-27T03:10:11.488Z,4.27
2018-12-27T03:12:40.800Z,3.43
2018-12-27T03:15:10.111Z,3.53
2018-12-27T03:17:39.425Z,3.87
2018-12-27T03:20:08.716Z,3.90
2018-12-27T03:22:38.008Z,4.07
2018-12-27T03:25:07.380Z,3.70
2018-12-27T03:27:36.691Z,3.63
2018-12-27T03:30:06.016Z,3.80
2018-12-27T03:32:35.302Z,3.67
2018-12-27T03:35:04.664Z,3.60
2018-12-27T03:37:33.972Z,3.80
2018-12-27T03:40:03.281Z,3.30
2018-12-27T03:42:32.582Z,4.00
2018-12-27T03:45:01.912Z,3.50
2018-12-27T03:47:31.240Z,3.50
2018-12-27T03:50:00.565Z,3.50
2018-12-27T03:52:29.873Z,3.47
2018-12-27T03:54:59.165Z,3.73
2018-12-27T03:57:28.489Z,3.77
2018-12-27T03:59:57.839Z,3.80
2018-12-27T04:02:27.129Z,3.67
2018-12-27T04:04:56.442Z,3.90
2018-12-27T04:07:25.758Z,3.63
2018-12-27T04:09:55.109Z,4.10
2018-12-27T04:12:24.449Z,3.50
2018-12-27T04:14:53.747Z,3.77
2018-12-27T04:17:22.723Z,3.90
2018-12-27T04:19:51.764Z,3.53
2018-12-27T04:22:20.736Z,3.77
2018-12-27T04:24:49.716Z,4.13
2018-12-27T04:27:18.692Z,3.40
2018-12-27T04:29:47.692Z,3.60
2018-12-27T04:32:16.615Z,3.70
2018-12-27T04:34:45.529Z,4.00
2018-12-27T04:37:14.474Z,3.43
2018-12-27T04:39:43.413Z,4.27
2018-12-27T04:42:12.320Z,3.60
2018-12-27T04:44:41.303Z,3.70
2018-12-27T04:47:10.269Z,3.50
2018-12-27T04:49:39.263Z,3.70
2018-12-27T04:52:08.343Z,3.90
2018-12-27T04:54:37.331Z,3.53
2018-12-27T04:57:06.332Z,3.83
2018-12-27T04:59:35.296Z,4.00
2018-12-27T05:02:04.336Z,4.00
2018-12-27T05:04:33.323Z,3.50
2018-12-27T05:07:02.280Z,3.77
2018-12-27T05:09:31.260Z,3.73
2018-12-27T05:12:00.227Z,3.90
2018-12-27T05:14:29.177Z,4.33
2018-12-27T05:16:58.176Z,3.83
2018-12-27T05:19:27.153Z,3.77
2018-12-27T05:21:56.114Z,3.73
2018-12-27T05:24:25.069Z,3.83
2018-12-27T05:26:54.036Z,3.80
2018-12-27T05:29:23.029Z,4.10
2018-12-27T05:31:51.978Z,4.10
2018-12-27T05:34:26.104Z,3.77
2018-12-27T05:36:51.734Z,3.87
2018-12-27T05:39:20.595Z,3.63
2018-12-27T05:41:49.524Z,3.97
2018-12-27T05:44:18.492Z,3.80
2018-12-27T05:46:47.451Z,4.10
2018-12-27T05:49:16.419Z,4.10
2018-12-27T05:51:45.385Z,3.77
2018-12-27T05:54:14.373Z,3.43
2018-12-27T05:56:43.314Z,3.80
2018-12-27T05:59:12.263Z,3.97
2018-12-27T06:01:41.179Z,4.00
2018-12-27T06:04:10.135Z,3.90
2018-12-27T06:06:39.105Z,3.80
2018-12-27T06:09:08.073Z,4.00
2018-12-27T06:11:37.042Z,4.03
2018-12-27T06:14:06.041Z,3.70
2018-12-27T06:16:34.997Z,4.23
2018-12-27T06:19:03.977Z,3.60
2018-12-27T06:21:32.954Z,3.70
2018-12-27T06:24:01.943Z,4.07
2018-12-27T06:26:30.888Z,4.47
2018-12-27T06:28:59.848Z,4.00
2018-12-27T06:31:28.840Z,4.13
2018-12-27T06:33:57.794Z,3.63
2018-12-27T06:36:26.771Z,4.20
2018-12-27T06:38:55.841Z,3.67
2018-12-27T06:41:24.823Z,4.30
2018-12-27T06:43:53.814Z,3.97
2018-12-27T06:46:22.761Z,3.80
2018-12-27T06:48:51.813Z,3.93
2018-12-27T06:51:20.809Z,3.77
2018-12-27T06:53:49.788Z,4.30
2018-12-27T06:56:18.823Z,3.77
2018-12-27T06:58:47.810Z,3.80
2018-12-27T07:01:16.801Z,4.57
2018-12-27T07:03:45.787Z,4.13
2018-12-27T07:06:14.734Z,4.47
2018-12-27T07:08:43.688Z,4.30
2018-12-27T07:11:12.757Z,3.90
2018-12-27T07:13:41.739Z,4.47
2018-12-27T07:16:10.728Z,4.23
2018-12-27T07:18:39.702Z,4.50
2018-12-27T07:21:08.672Z,4.03
2018-12-27T07:23:37.653Z,3.90
2018-12-27T07:26:06.617Z,4.70
2018-12-27T07:28:35.597Z,4.33
2018-12-27T07:31:04.581Z,4.10
2018-12-27T07:33:33.553Z,4.40
2018-12-27T07:36:02.523Z,4.00
2018-12-27T07:38:31.531Z,4.20
2018-12-27T07:41:00.439Z,4.33
2018-12-27T07:43:29.405Z,4.27
2018-12-27T07:45:58.394Z,4.03
2018-12-27T07:48:27.361Z,4.57
2018-12-27T07:50:56.349Z,4.20
2018-12-27T07:53:25.345Z,4.00
2018-12-27T07:55:54.314Z,4.30
2018-12-27T07:58:23.299Z,4.47
2018-12-27T08:00:52.296Z,4.60
2018-12-27T08:03:21.338Z,3.97
2018-12-27T08:05:50.303Z,4.70
2018-12-27T08:08:19.217Z,4.33
2018-12-27T08:10:48.189Z,4.23
2018-12-27T08:13:17.237Z,3.80
2018-12-27T08:15:46.306Z,4.60
2018-12-27T08:18:15.296Z,4.87
2018-12-27T08:20:44.276Z,4.67
2018-12-27T08:23:13.227Z,4.83
2018-12-27T08:25:42.313Z,4.50
2018-12-27T08:28:11.328Z,4.97
2018-12-27T08:30:40.272Z,5.37
2018-12-27T08:33:09.199Z,4.60
2018-12-27T08:35:38.172Z,6.20
2018-12-27T08:38:07.180Z,4.83
2018-12-27T08:40:36.137Z,5.30
2018-12-27T08:43:05.126Z,4.70
2018-12-27T08:45:34.081Z,4.87
2018-12-27T08:48:03.048Z,4.37
2018-12-27T08:50:32.155Z,4.93
2018-12-27T08:53:01.146Z,5.33
2018-12-27T08:55:30.218Z,4.60
2018-12-27T08:57:59.197Z,4.53
2018-12-27T09:00:28.193Z,4.77
2018-12-27T09:02:58.556Z,4.90
2018-12-27T09:05:27.528Z,4.80
2018-12-27T09:07:56.516Z,4.80
2018-12-27T09:10:25.491Z,4.87
2018-12-27T09:12:54.461Z,4.43
2018-12-27T09:15:23.451Z,4.53
2018-12-27T09:17:52.452Z,5.07
2018-12-27T09:20:21.405Z,4.43
2018-12-27T09:22:50.376Z,4.07
2018-12-27T09:25:19.296Z,4.30
2018-12-27T09:27:48.244Z,4.63
2018-12-27T09:30:17.200Z,4.50
2018-12-27T09:32:46.176Z,4.20
2018-12-27T09:35:15.134Z,4.23
2018-12-27T09:37:44.116Z,4.93
2018-12-27T09:40:13.103Z,4.70
2018-12-27T09:42:42.076Z,4.47
2018-12-27T09:45:11.106Z,4.53
2018-12-27T09:47:40.116Z,5.27
2018-12-27T09:50:09.062Z,4.77
2018-12-27T09:52:39.375Z,4.30
2018-12-27T09:55:08.328Z,4.33
2018-12-27T09:57:37.306Z,4.50
2018-12-27T10:00:06.708Z,4.23
2018-12-27T10:02:35.709Z,4.47
2018-12-27T10:05:05.116Z,4.20
2018-12-27T10:07:33.996Z,4.70
2018-12-27T10:10:02.982Z,4.63
2018-12-27T10:12:31.932Z,4.80
2018-12-27T10:15:00.910Z,4.77
2018-12-27T10:17:29.984Z,4.90
2018-12-27T10:19:58.969Z,5.80
2018-12-27T10:22:27.958Z,4.70
2018-12-27T10:24:56.913Z,4.67
2018-12-27T10:27:25.899Z,4.43
2018-12-27T10:29:54.865Z,4.37
2018-12-27T10:32:23.852Z,4.77
2018-12-27T10:34:52.830Z,4.63
2018-12-27T10:37:21.812Z,4.60
2018-12-27T10:39:50.787Z,5.00
2018-12-27T10:42:19.779Z,4.67
2018-12-27T10:44:48.780Z,4.60
2018-12-27T10:47:17.772Z,4.60
2018-12-27T10:49:46.749Z,4.40
2018-12-27T10:52:15.797Z,4.90
2018-12-27T10:54:44.744Z,4.63
2018-12-27T10:57:13.774Z,4.63
2018-12-27T10:59:42.757Z,5.50
2018-12-27T11:02:11.714Z,4.30
2018-12-27T11:04:40.672Z,4.67
2018-12-27T11:07:09.611Z,4.57
2018-12-27T11:09:38.575Z,4.63
2018-12-27T11:12:07.650Z,4.77
2018-12-27T11:14:36.573Z,4.50
2018-12-27T11:17:05.542Z,5.30
2018-12-27T11:19:34.499Z,5.37
2018-12-27T11:22:03.487Z,5.13
2018-12-27T11:24:32.401Z,5.07
2018-12-27T11:27:01.351Z,4.77
2018-12-27T11:29:30.306Z,5.07
2018-12-27T11:31:59.288Z,4.70
2018-12-27T11:34:28.258Z,5.20
2018-12-27T11:36:57.196Z,4.83
2018-12-27T11:39:26.132Z,4.97
2018-12-27T11:41:55.073Z,4.77
2018-12-27T11:44:24.042Z,5.07
2018-12-27T11:46:52.969Z,4.67
2018-12-27T11:49:21.964Z,5.20
2018-12-27T11:51:50.886Z,5.27
2018-12-27T11:54:19.835Z,4.83
2018-12-27T11:56:48.758Z,5.03
2018-12-27T11:59:17.712Z,5.27
2018-12-27T12:01:46.656Z,5.00
2018-12-27T12:04:15.573Z,5.00
2018-12-27T12:06:44.551Z,4.90
2018-12-27T12:09:13.535Z,4.70
2018-12-27T12:11:42.479Z,5.07
2018-12-27T12:14:11.412Z,5.30
2018-12-27T12:16:40.384Z,4.70
2018-12-27T12:19:09.363Z,5.23
2018-12-27T12:21:38.328Z,4.97
2018-12-27T12:24:07.270Z,4.77
2018-12-27T12:26:36.201Z,4.83
2018-12-27T12:29:05.221Z,4.80
2018-12-27T12:31:34.174Z,4.93
2018-12-27T12:34:03.158Z,5.00
2018-12-27T12:36:32.106Z,4.77
2018-12-27T12:39:01.096Z,5.07
2018-12-27T12:41:30.140Z,4.93
2018-12-27T12:43:59.135Z,5.33
2018-12-27T12:46:28.089Z,5.20
2018-12-27T12:48:57.050Z,4.70
2018-12-27T12:51:26.029Z,5.37
2018-12-27T12:53:55.007Z,5.37
2018-12-27T12:56:24.035Z,5.00
2018-12-27T12:58:53.015Z,5.30
2018-12-27T13:01:21.973Z,5.43
2018-12-27T13:03:50.973Z,5.03
2018-12-27T13:06:19.948Z,5.40
2018-12-27T13:08:49.286Z,5.07
2018-12-27T13:11:18.272Z,5.17
2018-12-27T13:13:47.263Z,4.97
2018-12-27T13:16:16.218Z,5.43
2018-12-27T13:18:47.499Z,5.00
2018-12-27T13:21:15.810Z,5.20
2018-12-27T13:23:44.796Z,5.50
2018-12-27T13:26:13.781Z,5.43
2018-12-27T13:28:42.752Z,5.57
2018-12-27T13:31:11.755Z,5.10
2018-12-27T13:33:40.701Z,5.10
2018-12-27T13:36:09.661Z,4.83
2018-12-27T13:38:39.060Z,5.50
2018-12-27T13:41:08.039Z,4.90
2018-12-27T13:43:36.937Z,5.00
2018-12-27T13:46:05.895Z,4.97
2018-12-27T13:48:34.953Z,4.97
2018-12-27T13:51:03.916Z,4.93
2018-12-27T13:53:32.821Z,5.10
2018-12-27T13:56:01.813Z,4.83
2018-12-27T13:58:30.789Z,4.97
2018-12-27T14:00:59.775Z,5.50
2018-12-27T14:03:28.691Z,5.03
2018-12-27T14:05:57.673Z,4.37
2018-12-27T14:08:26.633Z,4.97
2018-12-27T14:10:55.605Z,5.50
2018-12-27T14:13:24.584Z,5.10
2018-12-27T14:15:53.523Z,5.40
2018-12-27T14:18:22.552Z,5.00
2018-12-27T14:20:51.533Z,4.33
2018-12-27T14:23:20.486Z,4.77
2018-12-27T14:25:49.444Z,5.63
2018-12-27T14:28:18.432Z,4.67
2018-12-27T14:30:47.400Z,5.37
2018-12-27T14:33:16.400Z,4.90
2018-12-27T14:35:45.350Z,5.77
2018-12-27T14:38:14.343Z,5.00
2018-12-27T14:40:43.412Z,5.30
2018-12-27T14:43:12.376Z,5.47
2018-12-27T14:45:41.367Z,4.93
2018-12-27T14:48:10.371Z,5.20
2018-12-27T14:50:39.356Z,5.43
2018-12-27T14:53:08.328Z,5.23
2018-12-27T14:55:37.384Z,4.70
2018-12-27T14:58:06.359Z,4.97
2018-12-27T15:00:35.318Z,5.57
2018-12-27T15:03:04.246Z,4.90
2018-12-27T15:05:33.235Z,5.40
2018-12-27T15:08:02.125Z,4.70
2018-12-27T15:10:31.108Z,5.60
2018-12-27T15:13:00.112Z,5.20
2018-12-27T15:15:29.092Z,5.83
2018-12-27T15:17:58.029Z,5.60
2018-12-27T15:20:27.004Z,5.30
2018-12-27T15:22:55.991Z,5.57
2018-12-27T15:25:24.953Z,5.63
2018-12-27T15:27:53.970Z,5.67
2018-12-27T15:30:22.916Z,5.30
2018-12-27T15:32:51.911Z,5.90
2018-12-27T15:35:20.844Z,5.73
2018-12-27T15:37:49.792Z,5.90
2018-12-27T15:40:18.720Z,5.90
2018-12-27T15:42:47.700Z,5.97
2018-12-27T15:45:16.616Z,5.50
2018-12-27T15:47:45.620Z,5.60
2018-12-27T15:50:14.601Z,6.00
2018-12-27T15:52:43.577Z,6.13
2018-12-27T15:55:12.552Z,6.00
2018-12-27T15:57:41.548Z,5.70
2018-12-27T16:00:10.513Z,5.77
2018-12-27T16:02:39.499Z,5.60
2018-12-27T16:05:08.473Z,5.83
2018-12-27T16:07:37.452Z,5.43
2018-12-27T16:10:06.477Z,5.63
2018-12-27T16:12:35.453Z,5.43
2018-12-27T16:15:04.510Z,5.90
2018-12-27T16:17:33.484Z,5.93
2018-12-27T16:20:02.471Z,5.53
2018-12-27T16:22:31.449Z,5.97
2018-12-27T16:25:00.435Z,5.43
2018-12-27T16:27:29.394Z,5.13
2018-12-27T16:29:58.367Z,5.33
2018-12-27T16:32:27.362Z,5.83
2018-12-27T16:34:56.375Z,6.27
2018-12-27T16:37:25.346Z,5.60
2018-12-27T16:39:54.315Z,5.57
2018-12-27T16:42:23.376Z,5.60
2018-12-27T16:44:52.365Z,6.13
2018-12-27T16:47:21.432Z,6.10
2018-12-27T16:49:50.393Z,5.33
2018-12-27T16:52:19.367Z,6.00
2018-12-27T16:54:48.322Z,5.83
2018-12-27T16:57:19.845Z,8.83
2018-12-27T16:59:48.611Z,6.43
2018-12-27T17:02:17.649Z,7.03
2018-12-27T17:04:46.605Z,7.20
2018-12-27T17:07:16.557Z,7.03
2018-12-27T17:09:45.612Z,7.10
2018-12-27T17:12:14.612Z,7.40
2018-12-27T17:14:43.675Z,7.60
2018-12-27T17:17:12.645Z,6.90
2018-12-27T17:19:41.638Z,7.63
2018-12-27T17:22:10.626Z,7.27
2018-12-27T17:24:41.043Z,6.63
2018-12-27T17:27:10.153Z,6.43
2018-12-27T17:29:39.132Z,6.50
2018-12-27T17:32:09.118Z,6.33
2018-12-27T17:34:38.212Z,6.07
2018-12-27T17:37:07.151Z,6.30
2018-12-27T17:39:36.247Z,6.70
2018-12-27T17:42:05.320Z,6.77
2018-12-27T17:44:34.332Z,6.50
2018-12-27T17:47:07.030Z,6.37
2018-12-27T17:49:36.000Z,5.87
2018-12-27T17:52:05.065Z,6.47
2018-12-27T17:54:34.141Z,5.83
2018-12-27T17:57:03.218Z,6.13
2018-12-27T17:59:32.192Z,5.83
2018-12-27T18:02:01.181Z,6.17
2018-12-27T18:04:30.241Z,5.87
2018-12-27T18:06:59.217Z,5.87
2018-12-27T18:09:28.359Z,5.80
2018-12-27T18:11:57.354Z,10.80
2018-12-27T18:14:26.387Z,15.10
2018-12-27T18:16:55.363Z,31.13
2018-12-27T18:19:24.393Z,37.33
2018-12-27T18:21:53.473Z,44.63
2018-12-27T18:24:22.521Z,42.27
2018-12-27T18:26:51.524Z,40.93
2018-12-27T18:29:20.623Z,37.17
2018-12-27T18:31:49.609Z,33.70
2018-12-27T18:34:18.600Z,29.77
2018-12-27T18:36:47.582Z,30.70
2018-12-27T18:39:16.587Z,28.97
2018-12-27T18:41:45.527Z,27.03
2018-12-27T18:44:14.483Z,26.77
2018-12-27T18:46:43.468Z,24.43
2018-12-27T18:49:12.409Z,23.10
2018-12-27T18:51:41.428Z,23.60
2018-12-27T18:54:10.432Z,22.97
2018-12-27T18:56:39.369Z,21.37
2018-12-27T18:59:08.313Z,20.63
2018-12-27T19:01:37.335Z,20.20
2018-12-27T19:04:06.317Z,19.33
2018-12-27T19:06:35.326Z,17.97
2018-12-27T19:09:06.333Z,18.63
2018-12-27T19:12:11.426Z,16.70
2018-12-27T19:14:42.735Z,17.63
2018-12-27T19:17:31.305Z,17.73
2018-12-27T19:20:12.510Z,17.43
2018-12-27T19:22:50.587Z,15.97
2018-12-27T19:25:19.690Z,15.63
2018-12-27T19:27:48.656Z,14.53
2018-12-27T19:30:17.589Z,14.17
2018-12-27T19:32:46.503Z,14.40
2018-12-27T19:35:15.483Z,11.77
2018-12-27T19:37:44.552Z,14.17
2018-12-27T19:40:13.431Z,14.30
2018-12-27T19:42:42.546Z,14.03
2018-12-27T19:45:11.540Z,13.40
2018-12-27T19:47:40.528Z,13.60
2018-12-27T19:50:09.512Z,12.37
2018-12-27T19:52:38.593Z,12.43
2018-12-27T19:55:07.691Z,12.00
2018-12-27T19:57:36.733Z,11.80
2018-12-27T20:00:05.940Z,11.83
2018-12-27T20:02:34.913Z,11.90
2018-12-27T20:05:03.928Z,12.27
2018-12-27T20:07:32.986Z,11.50
2018-12-27T20:10:01.985Z,11.17
2018-12-27T20:12:30.949Z,10.93
2018-12-27T20:14:59.978Z,10.30
2018-12-27T20:17:29.007Z,11.00
2018-12-27T20:19:58.089Z,10.73
2018-12-27T20:22:27.094Z,9.73
2018-12-27T20:24:56.187Z,9.97
2018-12-27T20:27:25.197Z,10.23
2018-12-27T20:29:54.264Z,9.67
2018-12-27T20:32:23.264Z,10.07
2018-12-27T20:34:52.293Z,9.07
2018-12-27T20:37:21.440Z,9.43
2018-12-27T20:39:50.493Z,8.87
2018-12-27T20:42:19.558Z,9.20
2018-12-27T20:44:48.633Z,8.93
2018-12-27T20:47:17.709Z,8.87
2018-12-27T20:49:46.724Z,8.73
2018-12-27T20:52:15.784Z,9.20
2018-12-27T20:54:44.846Z,9.07
2018-12-27T20:57:13.825Z,8.40
2018-12-27T20:59:42.772Z,8.57
2018-12-27T21:02:11.724Z,8.63
2018-12-27T21:04:40.736Z,8.60
2018-12-27T21:07:09.700Z,7.83
2018-12-27T21:09:41.029Z,8.57
2018-12-27T21:12:10.028Z,8.70
2018-12-27T21:14:39.025Z,8.20
2018-12-27T21:17:07.985Z,8.90
2018-12-27T21:19:36.967Z,9.27
2018-12-27T21:22:05.952Z,8.50
2018-12-27T21:24:35.064Z,8.97
2018-12-27T21:27:04.086Z,8.67
2018-12-27T21:29:33.036Z,8.33
2018-12-27T21:32:02.132Z,9.10
2018-12-27T21:34:31.141Z,8.90
2018-12-27T21:37:00.103Z,8.60
2018-12-27T21:39:29.092Z,8.00
2018-12-27T21:41:58.062Z,8.70
2018-12-27T21:44:27.030Z,8.50
2018-12-27T21:46:56.035Z,8.87
2018-12-27T21:49:25.033Z,7.73
2018-12-27T21:51:54.000Z,8.17
2018-12-27T21:54:23.079Z,8.00
2018-12-27T21:56:52.075Z,8.10
2018-12-27T21:59:21.054Z,8.47
2018-12-27T22:01:50.042Z,7.80
2018-12-27T22:04:19.025Z,7.07
2018-12-27T22:06:47.997Z,8.00
2018-12-27T22:09:17.084Z,7.87
2018-12-27T22:11:46.057Z,8.07
2018-12-27T22:14:15.053Z,7.60
2018-12-27T22:16:44.017Z,8.40
2018-12-27T22:19:13.028Z,7.47
2018-12-27T22:21:42.008Z,7.27
2018-12-27T22:24:11.004Z,8.20
2018-12-27T22:26:39.957Z,7.93
2018-12-27T22:29:08.928Z,8.53
2018-12-27T22:31:37.850Z,8.03
2018-12-27T22:34:06.800Z,8.40
2018-12-27T22:36:35.755Z,8.37
2018-12-27T22:39:06.670Z,7.80
2018-12-27T22:41:35.667Z,7.83
2018-12-27T22:44:04.706Z,8.23
2018-12-27T22:46:33.772Z,7.73
2018-12-27T22:49:02.858Z,8.70
2018-12-27T22:51:31.828Z,8.03
2018-12-27T22:54:00.790Z,8.63
2018-12-27T22:56:29.837Z,8.43
2018-12-27T22:58:58.796Z,7.73
2018-12-27T23:01:27.757Z,7.97
2018-12-27T23:03:56.827Z,8.03
2018-12-27T23:06:25.815Z,8.60
2018-12-27T23:08:54.836Z,8.80
2018-12-27T23:11:23.800Z,8.67
2018-12-27T23:13:52.872Z,7.93
2018-12-27T23:16:21.865Z,8.57
2018-12-27T23:18:50.865Z,8.47
2018-12-27T23:21:19.844Z,8.67
2018-12-27T23:23:48.815Z,7.50
2018-12-27T23:26:17.808Z,8.27
2018-12-27T23:28:46.857Z,8.83
2018-12-27T23:31:15.831Z,9.00
2018-12-27T23:33:44.826Z,7.97
2018-12-27T23:36:13.823Z,8.83
2018-12-27T23:38:42.818Z,8.33
2018-12-27T23:41:11.793Z,7.90
2018-12-27T23:43:40.769Z,9.03
2018-12-27T23:46:09.696Z,8.20
2018-12-27T23:48:38.692Z,8.27
2018-12-27T23:51:07.667Z,8.30
2018-12-27T23:53:36.751Z,7.87
2018-12-27T23:56:05.725Z,8.03
2018-12-27T23:58:34.765Z,8.03
